Time;durP1;ratioP1;P1;durP2;ratioP2;P2;SDS_P1;SDS_P2;PMS_P1;PMS_P2;Temp;Humidity;BMP_temperature;BMP_pressure;BME280_temperature;BME280_humidity;BME280_pressure;Samples;Min_cycle;Max_cycle;Signal;HPM_P1;HPM_P2
2021/10/17 00:00:52;;;;;;;29.40;20.00;;;;;;;11.61;52.92;95653.69;4955075;28;20040;-74
2021/10/17 00:03:18;;;;;;;24.92;17.30;;;;;;;11.63;52.78;95658.75;4969604;28;20669;-75
2021/10/17 00:05:43;;;;;;;17.92;15.82;;;;;;;11.65;52.71;95667.22;4971580;28;20019;-74
2021/10/17 00:08:09;;;;;;;33.13;20.98;;;;;;;11.63;52.73;95674.72;4973279;28;20035;-74
2021/10/17 00:10:36;;;;;;;22.80;16.95;;;;;;;11.60;52.46;95672.63;4969469;28;20027;-74
2021/10/17 00:13:04;;;;;;;25.67;17.40;;;;;;;11.57;52.47;95670.59;4949253;28;20062;-73
2021/10/17 00:15:32;;;;;;;28.70;20.90;;;;;;;11.49;52.44;95665.94;4954909;28;20097;-75
2021/10/17 00:17:59;;;;;;;36.38;22.52;;;;;;;11.56;52.90;95680.44;4950577;28;20023;-72
2021/10/17 00:20:25;;;;;;;42.15;23.80;;;;;;;11.53;52.95;95677.59;4953076;28;20027;-73
2021/10/17 00:22:52;;;;;;;37.35;21.75;;;;;;;11.49;52.73;95682.72;4951451;28;20036;-75
2021/10/17 00:25:18;;;;;;;32.85;21.33;;;;;;;11.46;52.36;95677.97;4950185;28;20046;-75
2021/10/17 00:27:44;;;;;;;38.90;22.33;;;;;;;11.27;52.80;95675.41;4950400;28;20505;-73
2021/10/17 00:30:10;;;;;;;32.95;21.98;;;;;;;11.21;53.11;95684.56;4949866;28;20047;-75
2021/10/17 00:32:37;;;;;;;27.60;20.02;;;;;;;11.15;53.86;95675.88;4953096;28;20034;-72
2021/10/17 00:35:05;;;;;;;27.15;19.25;;;;;;;11.14;53.20;95681.50;4950189;28;20109;-72
2021/10/17 00:37:31;;;;;;;35.80;22.77;;;;;;;11.16;52.88;95674.03;4950780;28;20042;-72
2021/10/17 00:39:57;;;;;;;29.75;21.08;;;;;;;11.12;53.39;95681.78;4950258;28;20592;-75
2021/10/17 00:42:23;;;;;;;35.05;23.20;;;;;;;11.12;53.65;95689.00;4950363;28;20043;-75
2021/10/17 00:45:04;;;;;;;34.95;22.92;;;;;;;11.10;53.74;95683.16;4965105;28;20389;-73
2021/10/17 00:47:30;;;;;;;27.48;19.45;;;;;;;11.11;53.35;95695.41;4932676;28;20051;-75
2021/10/17 00:49:55;;;;;;;41.78;23.92;;;;;;;11.12;53.40;95689.00;4913588;28;20071;-74
2021/10/17 00:52:21;;;;;;;33.67;20.15;;;;;;;11.14;53.19;95692.94;4926309;28;20162;-75
2021/10/17 00:54:47;;;;;;;43.15;24.63;;;;;;;11.18;52.83;95701.91;4931755;28;20040;-74
2021/10/17 00:57:14;;;;;;;30.55;20.25;;;;;;;11.14;53.35;95706.25;4943953;28;20046;-74
2021/10/17 00:59:40;;;;;;;36.85;22.60;;;;;;;11.02;53.43;95695.28;4965348;28;20075;-68
2021/10/17 01:02:07;;;;;;;42.05;26.00;;;;;;;11.09;53.60;95705.53;4952913;28;20027;-74
2021/10/17 01:04:33;;;;;;;49.38;26.80;;;;;;;11.09;53.47;95705.53;4950614;28;20118;-74
2021/10/17 01:06:58;;;;;;;32.15;21.27;;;;;;;11.09;53.17;95708.22;4950799;28;20127;-74
2021/10/17 01:09:24;;;;;;;30.42;20.90;;;;;;;11.04;53.60;95702.97;4950367;28;20122;-75
2021/10/17 01:11:49;;;;;;;32.92;22.83;;;;;;;10.99;54.00;95690.53;4950120;28;20019;-75
2021/10/17 01:14:20;;;;;;;31.20;21.58;;;;;;;11.00;53.93;95691.31;4951705;28;20098;-77
2021/10/17 01:16:47;;;;;;;30.80;20.48;;;;;;;11.04;53.21;95694.97;4967615;28;20627;-75
2021/10/17 01:19:13;;;;;;;34.72;22.02;;;;;;;10.97;54.34;95683.94;4969225;28;20437;-76
2021/10/17 01:21:40;;;;;;;42.83;25.75;;;;;;;10.97;54.08;95690.03;4984539;28;20070;-74
2021/10/17 01:24:06;;;;;;;47.83;28.13;;;;;;;11.00;54.20;95694.78;4969580;28;20448;-75
2021/10/17 01:26:32;;;;;;;38.80;25.02;;;;;;;11.00;53.60;95691.31;4964958;28;20034;-73
2021/10/17 01:28:58;;;;;;;37.28;24.52;;;;;;;11.00;53.24;95691.31;4964780;28;20849;-75
2021/10/17 01:31:50;;;;;;;33.72;22.48;;;;;;;10.90;53.56;95682.44;4950388;28;20031;-75
2021/10/17 01:34:17;;;;;;;40.00;25.00;;;;;;;10.98;52.85;95685.50;4962698;28;20509;-73
2021/10/17 01:36:43;;;;;;;39.20;22.98;;;;;;;10.93;52.73;95678.41;4969533;28;20129;-75
2021/10/17 01:39:11;;;;;;;40.40;26.55;;;;;;;10.90;53.70;95677.13;4967879;28;20051;-73
2021/10/17 01:41:37;;;;;;;43.10;23.98;;;;;;;10.82;53.36;95677.00;4964787;28;20031;-74
2021/10/17 01:44:09;;;;;;;29.30;20.30;;;;;;;10.78;53.75;95668.78;4938404;28;20581;-73
2021/10/17 01:46:35;;;;;;;35.10;21.30;;;;;;;10.80;53.74;95673.81;4946246;28;20044;-74
2021/10/17 01:49:05;;;;;;;39.40;22.98;;;;;;;10.74;53.53;95659.81;4960892;28;20065;-73
2021/10/17 01:51:31;;;;;;;35.33;21.98;;;;;;;10.76;53.52;95665.66;4969428;28;20042;-73
2021/10/17 01:53:56;;;;;;;31.33;20.95;;;;;;;10.78;53.92;95673.34;4969196;28;20027;-73
2021/10/17 01:56:21;;;;;;;40.85;22.48;;;;;;;10.75;53.94;95672.06;4982166;28;20511;-73
2021/10/17 01:58:47;;;;;;;44.97;24.63;;;;;;;10.74;53.40;95661.69;4955903;28;20047;-73
2021/10/17 02:01:12;;;;;;;28.73;19.38;;;;;;;10.72;53.64;95672.63;4937629;28;20442;-73
2021/10/17 02:03:38;;;;;;;32.17;20.75;;;;;;;10.77;53.71;95669.88;4938329;28;20126;-72
2021/10/17 02:06:03;;;;;;;27.38;18.50;;;;;;;10.75;53.05;95666.75;4947108;28;20035;-73
2021/10/17 02:08:30;;;;;;;35.45;20.33;;;;;;;10.75;53.42;95661.41;4932774;29;20046;-74
2021/10/17 02:10:56;;;;;;;35.63;21.27;;;;;;;10.69;53.31;95657.25;4948497;28;20493;-75
2021/10/17 02:13:21;;;;;;;39.30;22.30;;;;;;;10.70;53.35;95669.47;4949305;28;20055;-75
2021/10/17 02:15:47;;;;;;;33.65;21.45;;;;;;;10.67;53.23;95672.72;4949759;28;20366;-75
2021/10/17 02:18:13;;;;;;;47.00;25.38;;;;;;;10.54;53.34;95652.94;4953096;28;20113;-75
2021/10/17 02:20:38;;;;;;;50.30;26.63;;;;;;;10.56;53.35;95656.13;4970447;28;20389;-75
2021/10/17 02:23:04;;;;;;;44.15;23.95;;;;;;;10.57;53.49;95656.91;4968856;28;20039;-75
2021/10/17 02:25:30;;;;;;;40.33;22.30;;;;;;;10.57;53.61;95664.91;4968942;28;20101;-75
2021/10/17 02:27:56;;;;;;;37.30;23.00;;;;;;;10.46;54.17;95658.16;4952082;28;20382;-75
2021/10/17 02:30:21;;;;;;;31.10;20.67;;;;;;;10.46;54.20;95656.28;4951543;28;20054;-72
2021/10/17 02:32:47;;;;;;;33.22;20.58;;;;;;;10.28;53.83;95623.31;4948459;28;20370;-75
2021/10/17 02:35:12;;;;;;;29.55;19.08;;;;;;;10.51;54.28;95655.41;4951292;28;20027;-72
2021/10/17 02:37:38;;;;;;;33.95;20.25;;;;;;;10.50;53.47;95651.19;4934022;28;20043;-76
2021/10/17 02:40:04;;;;;;;48.28;24.13;;;;;;;10.53;54.06;95653.25;4929844;28;20375;-75
2021/10/17 02:42:30;;;;;;;32.38;20.85;;;;;;;10.55;53.91;95664.41;4941397;28;20031;-75
2021/10/17 02:44:55;;;;;;;47.38;23.33;;;;;;;10.83;53.61;95674.03;4951158;28;20505;-74
2021/10/17 02:47:20;;;;;;;30.25;19.85;;;;;;;10.84;53.04;95664.97;4932388;29;20260;-73
2021/10/17 02:49:46;;;;;;;34.35;20.23;;;;;;;10.83;53.41;95662.59;4963231;28;20047;-74
2021/10/17 02:52:11;;;;;;;60.70;26.35;;;;;;;10.87;52.36;95676.91;4972369;28;20047;-74
2021/10/17 02:54:36;;;;;;;43.15;23.88;;;;;;;10.74;53.03;95662.47;4971947;28;20637;-74
2021/10/17 02:57:02;;;;;;;44.55;22.75;;;;;;;10.78;52.50;95671.47;4979743;28;20066;-74
2021/10/17 02:59:27;;;;;;;68.47;30.30;;;;;;;10.71;52.67;95662.28;4953915;28;20026;-74
2021/10/17 03:01:53;;;;;;;55.80;25.45;;;;;;;10.68;52.91;95663.66;4951287;28;20035;-74
2021/10/17 03:04:19;;;;;;;40.45;21.90;;;;;;;10.67;52.41;95676.16;4951129;28;20134;-72
2021/10/17 03:06:44;;;;;;;51.03;24.85;;;;;;;10.66;52.36;95671.94;4942807;28;20047;-74
2021/10/17 03:09:10;;;;;;;58.92;26.67;;;;;;;10.67;52.91;95678.03;4935753;29;20551;-74
2021/10/17 03:11:35;;;;;;;42.53;21.60;;;;;;;10.59;52.41;95660.84;4952859;28;20056;-74
2021/10/17 03:14:02;;;;;;;33.50;20.65;;;;;;;10.63;53.07;95674.38;4963474;28;20039;-75
2021/10/17 03:16:27;;;;;;;37.47;21.67;;;;;;;10.62;53.33;95676.25;4952484;28;20035;-74
2021/10/17 03:18:53;;;;;;;59.65;26.88;;;;;;;10.62;52.96;95667.47;4960672;28;20689;-75
2021/10/17 03:21:18;;;;;;;37.22;20.40;;;;;;;10.64;52.33;95673.28;4971844;28;20049;-73
2021/10/17 03:23:44;;;;;;;55.95;25.88;;;;;;;10.59;53.07;95673.38;4971638;28;20070;-72
2021/10/17 03:26:09;;;;;;;41.88;21.65;;;;;;;10.52;53.08;95668.41;4974083;28;20030;-75
2021/10/17 03:28:34;;;;;;;31.13;19.42;;;;;;;10.46;52.85;95655.50;4956623;28;20039;-73
2021/10/17 03:31:04;;;;;;;56.28;24.65;;;;;;;10.49;52.64;95671.66;4951389;28;20039;-72
2021/10/17 03:33:30;;;;;;;55.00;24.58;;;;;;;10.42;53.17;95655.28;4952838;28;20429;-74
2021/10/17 03:35:55;;;;;;;61.25;26.90;;;;;;;10.43;52.80;95664.84;4952813;28;20032;-75
2021/10/17 03:38:21;;;;;;;51.53;23.75;;;;;;;10.38;52.94;95663.03;4955196;28;20031;-77
2021/10/17 03:40:46;;;;;;;26.48;17.70;;;;;;;10.36;52.34;95667.88;4952649;28;20507;-74
2021/10/17 03:43:12;;;;;;;30.83;18.80;;;;;;;10.38;52.82;95671.00;4964606;28;20527;-74
2021/10/17 03:45:39;;;;;;;27.45;18.10;;;;;;;10.32;53.07;95666.06;4960015;28;20027;-75
2021/10/17 03:48:04;;;;;;;32.03;19.83;;;;;;;10.37;53.01;95679.28;4951385;28;20113;-74
2021/10/17 03:50:30;;;;;;;45.05;22.08;;;;;;;10.24;52.45;95650.78;4954038;28;20126;-75
2021/10/17 03:52:55;;;;;;;32.92;18.30;;;;;;;10.35;52.89;95668.16;4952232;28;20037;-75
2021/10/17 03:55:20;;;;;;;26.40;17.80;;;;;;;10.32;52.48;95668.72;4952229;28;20051;-75
2021/10/17 03:57:46;;;;;;;43.35;22.75;;;;;;;10.32;52.77;95666.84;4953962;28;20508;-75
2021/10/17 04:00:11;;;;;;;35.00;19.33;;;;;;;10.21;52.18;95660.09;4959219;28;20046;-74
2021/10/17 04:02:37;;;;;;;21.63;16.63;;;;;;;10.15;52.53;95656.72;4952584;28;20135;-73
2021/10/17 04:05:02;;;;;;;43.10;22.08;;;;;;;10.23;52.37;95673.88;4951954;28;20054;-74
2021/10/17 04:07:28;;;;;;;42.13;21.33;;;;;;;10.08;53.00;95656.28;4950815;28;20097;-74
2021/10/17 04:09:53;;;;;;;41.88;21.92;;;;;;;10.19;52.97;95661.47;4951344;28;20039;-74
2021/10/17 04:12:18;;;;;;;46.28;22.02;;;;;;;10.07;52.75;95651.25;4951568;28;20122;-74
2021/10/17 04:14:44;;;;;;;28.27;18.27;;;;;;;10.06;52.86;95644.34;4951251;28;20019;-74
2021/10/17 04:17:09;;;;;;;33.33;19.58;;;;;;;10.09;52.72;95649.09;4968458;28;20473;-74
2021/10/17 04:19:35;;;;;;;46.47;24.20;;;;;;;10.06;52.67;95653.13;4951146;28;20031;-74
2021/10/17 04:22:00;;;;;;;29.50;18.55;;;;;;;10.07;52.44;95653.91;4951785;28;20039;-74
2021/10/17 04:24:25;;;;;;;30.30;17.85;;;;;;;9.98;53.14;95645.00;4950369;28;20031;-74
2021/10/17 04:26:51;;;;;;;26.77;18.23;;;;;;;10.09;52.51;95668.50;4950135;28;20473;-74
2021/10/17 04:29:16;;;;;;;32.10;19.15;;;;;;;10.03;53.03;95655.56;4962236;28;20480;-74
2021/10/17 04:31:42;;;;;;;36.42;20.42;;;;;;;10.01;52.76;95650.53;4958080;28;20043;-74
2021/10/17 04:34:07;;;;;;;27.70;17.17;;;;;;;10.03;52.70;95651.06;4950833;28;20043;-73
2021/10/17 04:36:32;;;;;;;32.83;19.08;;;;;;;9.99;52.79;95642.06;4951164;28;20120;-74
2021/10/17 04:38:58;;;;;;;29.27;18.35;;;;;;;10.07;52.75;95652.03;4965564;28;20738;-74
2021/10/17 04:41:24;;;;;;;27.08;17.27;;;;;;;9.96;52.81;95647.16;4951698;28;20029;-74
2021/10/17 04:43:49;;;;;;;32.40;19.65;;;;;;;10.05;53.13;95651.53;4958158;28;20035;-74
2021/10/17 04:46:14;;;;;;;44.50;22.75;;;;;;;9.96;52.86;95639.19;4965890;28;20073;-74
2021/10/17 04:48:40;;;;;;;52.33;25.67;;;;;;;10.00;52.65;95640.19;4950864;28;20552;-74
2021/10/17 04:51:05;;;;;;;50.63;23.73;;;;;;;9.96;52.16;95631.22;4951043;28;20036;-74
2021/10/17 04:53:31;;;;;;;44.50;23.75;;;;;;;9.94;52.59;95630.72;4952569;28;20493;-74
2021/10/17 04:55:56;;;;;;;30.70;19.25;;;;;;;9.81;52.50;95608.31;4949651;28;20063;-73
2021/10/17 04:58:25;;;;;;;55.72;24.00;;;;;;;9.99;52.64;95642.06;4958277;28;20094;-74
2021/10/17 05:00:50;;;;;;;43.53;22.60;;;;;;;9.94;52.78;95633.38;4958275;28;20434;-75
2021/10/17 05:03:15;;;;;;;32.67;18.80;;;;;;;9.98;53.03;95635.19;4950362;28;20035;-74
2021/10/17 05:05:42;;;;;;;45.83;22.80;;;;;;;9.94;52.91;95634.16;4950726;28;20039;-74
2021/10/17 05:08:07;;;;;;;44.55;22.58;;;;;;;9.95;53.03;95637.59;4952677;28;20028;-74
2021/10/17 05:10:33;;;;;;;58.63;25.60;;;;;;;9.93;53.07;95639.75;4950036;28;20497;-74
2021/10/17 05:12:58;;;;;;;41.65;21.50;;;;;;;9.95;53.09;95645.59;4956403;28;20065;-74
2021/10/17 05:15:24;;;;;;;32.88;20.42;;;;;;;9.95;53.75;95624.31;4949860;28;20039;-75
2021/10/17 05:17:49;;;;;;;33.65;19.38;;;;;;;9.98;54.04;95629.88;4949350;28;20358;-74
2021/10/17 05:20:14;;;;;;;42.03;21.63;;;;;;;10.02;54.22;95646.00;4952132;29;20065;-74
2021/10/17 05:22:40;;;;;;;33.10;19.23;;;;;;;10.07;54.08;95636.09;4950090;28;20051;-73
2021/10/17 05:25:06;;;;;;;38.67;20.98;;;;;;;10.10;53.56;95634.72;4964906;28;20042;-73
2021/10/17 05:27:31;;;;;;;37.97;20.00;;;;;;;10.07;53.71;95632.66;4953405;28;20031;-74
2021/10/17 05:29:56;;;;;;;34.88;20.70;;;;;;;10.10;53.73;95640.06;4960765;28;20019;-74
2021/10/17 05:32:23;;;;;;;35.28;19.77;;;;;;;10.19;53.60;95645.50;4953192;28;20029;-74
2021/10/17 05:34:48;;;;;;;41.35;20.20;;;;;;;10.14;53.67;95643.72;4950214;28;20398;-74
2021/10/17 05:37:14;;;;;;;29.05;17.98;;;;;;;10.20;53.02;95647.88;4950123;28;20031;-74
2021/10/17 05:39:39;;;;;;;41.40;20.90;;;;;;;10.23;53.21;95655.25;4948554;28;20043;-74
2021/10/17 05:42:05;;;;;;;47.72;22.65;;;;;;;10.19;53.45;95646.31;4949796;28;20035;-75
2021/10/17 05:44:30;;;;;;;51.88;23.95;;;;;;;10.23;52.99;95635.88;4943888;29;20035;-72
2021/10/17 05:46:56;;;;;;;36.60;19.95;;;;;;;10.32;53.31;95640.28;4950185;28;20062;-74
2021/10/17 05:49:21;;;;;;;29.10;17.63;;;;;;;10.33;53.44;95636.53;4936282;28;20040;-71
2021/10/17 05:51:46;;;;;;;27.08;16.42;;;;;;;10.49;53.28;95649.59;4939810;28;20050;-75
2021/10/17 05:54:12;;;;;;;29.60;17.52;;;;;;;10.45;53.14;95637.97;4944878;28;20405;-71
2021/10/17 05:56:37;;;;;;;37.15;19.02;;;;;;;10.49;53.15;95639.72;4932475;29;20118;-71
2021/10/17 05:59:02;;;;;;;32.17;18.38;;;;;;;10.47;52.69;95635.78;4964618;28;20035;-75
2021/10/17 06:01:28;;;;;;;46.20;21.02;;;;;;;10.53;53.72;95645.28;4951002;28;20046;-77
2021/10/17 06:03:53;;;;;;;30.50;16.83;;;;;;;10.63;52.92;95650.44;4950841;28;20130;-76
2021/10/17 06:06:19;;;;;;;19.98;15.27;;;;;;;10.71;52.74;95649.78;4953866;28;20031;-81
2021/10/17 06:08:46;;;;;;;17.90;13.85;;;;;;;10.73;52.60;95644.16;4950519;28;20063;-74
2021/10/17 06:11:11;;;;;;;21.70;14.68;;;;;;;10.86;52.74;95660.16;4953238;28;20020;-69
2021/10/17 06:13:37;;;;;;;15.50;13.23;;;;;;;10.92;52.63;95668.84;4949085;28;20078;-68
2021/10/17 06:16:02;;;;;;;24.35;15.32;;;;;;;10.94;53.14;95664.00;4951238;28;20090;-76
2021/10/17 06:18:28;;;;;;;18.05;14.55;;;;;;;11.01;52.92;95663.66;4952934;28;20039;-81
2021/10/17 06:20:53;;;;;;;16.00;13.35;;;;;;;11.08;51.96;95664.81;4950440;28;20054;-70
2021/10/17 06:23:19;;;;;;;17.92;13.52;;;;;;;11.11;52.00;95658.13;4950245;28;20114;-72
2021/10/17 06:25:44;;;;;;;36.05;18.27;;;;;;;11.23;52.31;95658.44;4952500;28;20066;-72
2021/10/17 06:28:10;;;;;;;18.65;14.05;;;;;;;11.23;51.85;95653.09;4951798;28;20083;-72
2021/10/17 06:30:35;;;;;;;16.02;12.95;;;;;;;11.33;52.05;95668.09;4951591;28;20035;-71
2021/10/17 06:33:00;;;;;;;13.55;11.90;;;;;;;11.44;51.89;95669.50;4951890;28;20035;-72
2021/10/17 06:35:26;;;;;;;14.18;12.68;;;;;;;11.51;51.52;95663.75;4954105;29;20126;-71
2021/10/17 06:37:51;;;;;;;35.17;18.98;;;;;;;11.65;51.75;95676.00;4953648;28;20082;-71
2021/10/17 06:40:16;;;;;;;36.35;19.13;;;;;;;11.63;51.85;95661.41;4952887;28;20058;-72
2021/10/17 06:42:42;;;;;;;14.57;12.77;;;;;;;11.77;51.84;95678.16;4951750;28;20036;-72
2021/10/17 06:45:08;;;;;;;18.10;13.63;;;;;;;11.80;52.05;95680.22;4952672;28;20094;-72
2021/10/17 06:47:33;;;;;;;12.88;11.57;;;;;;;11.88;51.27;95681.44;4954632;28;20043;-72
2021/10/17 06:49:58;;;;;;;18.30;14.63;;;;;;;11.89;51.42;95675.81;4952500;28;20039;-72
2021/10/17 06:52:24;;;;;;;17.90;13.35;;;;;;;11.90;51.67;95674.72;4952763;28;20057;-72
2021/10/17 06:54:49;;;;;;;13.32;11.93;;;;;;;12.02;51.63;95687.53;4952260;28;20071;-72
2021/10/17 06:57:14;;;;;;;16.23;14.38;;;;;;;12.08;51.74;95686.34;4952547;28;20108;-71
2021/10/17 06:59:40;;;;;;;14.35;12.77;;;;;;;12.10;51.57;95688.72;4950302;28;20110;-68
2021/10/17 07:02:05;;;;;;;14.23;12.80;;;;;;;12.20;51.35;95696.50;4954208;28;20517;-71
2021/10/17 07:04:31;;;;;;;17.00;13.57;;;;;;;12.27;51.81;95690.72;4952331;28;20111;-72
2021/10/17 07:06:56;;;;;;;25.88;16.35;;;;;;;12.32;51.30;95694.06;4952426;28;20122;-72
2021/10/17 07:09:21;;;;;;;15.73;13.43;;;;;;;12.41;51.32;95694.94;4951979;28;20396;-72
2021/10/17 07:11:47;;;;;;;16.13;13.45;;;;;;;12.54;51.67;95708.53;4953446;28;20023;-72
2021/10/17 07:14:12;;;;;;;17.15;14.15;;;;;;;12.59;51.68;95703.88;4964664;28;20433;-72
2021/10/17 07:16:37;;;;;;;14.70;13.00;;;;;;;12.66;51.78;95711.47;4960098;28;20082;-72
2021/10/17 07:19:03;;;;;;;21.40;15.70;;;;;;;12.74;52.07;95713.41;4950312;28;20106;-71
2021/10/17 07:21:28;;;;;;;17.02;14.82;;;;;;;12.83;51.57;95708.13;4952168;28;20041;-72
2021/10/17 07:23:54;;;;;;;15.15;13.60;;;;;;;12.90;51.90;95703.94;4951727;28;20028;-72
2021/10/17 07:26:19;;;;;;;19.55;16.42;;;;;;;13.00;51.99;95703.69;4954009;29;20486;-71
2021/10/17 07:28:45;;;;;;;15.63;13.88;;;;;;;13.06;51.91;95709.69;4956501;28;20125;-71
2021/10/17 07:31:10;;;;;;;14.68;12.80;;;;;;;13.12;51.89;95705.81;4962387;28;20039;-72
2021/10/17 07:33:37;;;;;;;14.75;13.23;;;;;;;13.24;51.97;95697.25;4951991;28;20086;-74
2021/10/17 07:36:03;;;;;;;17.17;13.30;;;;;;;13.34;51.96;95705.00;4951987;28;20086;-74
2021/10/17 07:38:28;;;;;;;14.98;13.48;;;;;;;13.40;51.78;95694.97;4954098;28;20032;-75
2021/10/17 07:40:54;;;;;;;13.25;12.05;;;;;;;13.57;51.77;95691.59;4951923;28;20134;-75
2021/10/17 07:43:19;;;;;;;13.60;12.30;;;;;;;13.73;51.92;95700.75;4953638;28;20158;-74
2021/10/17 07:45:45;;;;;;;11.55;10.55;;;;;;;13.90;51.60;95702.69;4967331;28;20101;-74
2021/10/17 07:48:12;;;;;;;15.23;13.07;;;;;;;13.97;51.88;95698.47;4952459;28;20093;-73
2021/10/17 07:50:37;;;;;;;13.68;12.38;;;;;;;14.10;51.53;95704.00;4954416;29;20023;-73
2021/10/17 07:53:03;;;;;;;11.23;10.10;;;;;;;14.25;51.75;95706.22;4952678;28;20089;-69
2021/10/17 07:55:29;;;;;;;14.25;12.80;;;;;;;14.37;51.60;95706.38;4951794;28;20048;-69
2021/10/17 07:57:55;;;;;;;11.90;10.80;;;;;;;14.40;51.46;95695.06;4951468;28;20052;-73
2021/10/17 08:00:25;;;;;;;12.15;11.05;;;;;;;14.63;51.58;95711.00;4958715;28;20039;-70
2021/10/17 08:03:03;;;;;;;11.38;10.38;;;;;;;14.55;51.80;95704.56;4951060;28;20031;-80
2021/10/17 08:05:28;;;;;;;9.95;9.05;;;;;;;14.80;51.82;95708.31;4967695;28;20027;-74
2021/10/17 08:07:54;;;;;;;11.40;10.25;;;;;;;14.77;51.43;95700.91;4961368;28;20047;-72
2021/10/17 08:10:20;;;;;;;11.20;10.20;;;;;;;14.70;52.45;95711.31;4957390;28;20036;-83
2021/10/17 08:12:46;;;;;;;11.05;10.13;;;;;;;14.95;51.66;95690.97;4949747;28;20110;-73
2021/10/17 08:15:11;;;;;;;11.45;10.45;;;;;;;15.17;51.24;95714.88;4959774;28;20039;-71
2021/10/17 08:17:37;;;;;;;10.90;9.93;;;;;;;15.14;51.60;95696.75;4953458;28;20582;-73
2021/10/17 08:20:05;;;;;;;10.45;9.55;;;;;;;15.43;51.03;95708.66;4954837;28;20039;-79
2021/10/17 08:22:30;;;;;;;12.45;11.32;;;;;;;14.55;53.06;95708.00;4952068;28;20077;-77
2021/10/17 08:24:56;;;;;;;11.57;10.50;;;;;;;15.02;52.00;95705.44;4951550;28;20609;-72
2021/10/17 08:27:21;;;;;;;14.02;12.48;;;;;;;14.51;53.84;95712.41;4951442;28;20081;-71
2021/10/17 08:29:46;;;;;;;12.15;10.98;;;;;;;14.96;53.34;95722.00;4950267;28;20027;-71
2021/10/17 08:32:12;;;;;;;13.10;11.80;;;;;;;14.18;55.00;95698.69;4960940;28;20353;-71
2021/10/17 08:34:37;;;;;;;13.10;11.90;;;;;;;14.14;55.87;95715.66;4963014;28;20133;-71
2021/10/17 08:37:03;;;;;;;12.93;11.73;;;;;;;13.78;58.26;95730.03;4970726;28;20034;-73
2021/10/17 08:39:28;;;;;;;15.93;14.38;;;;;;;14.79;54.89;95733.50;4968504;28;20035;-72
2021/10/17 08:41:54;;;;;;;13.52;12.27;;;;;;;14.76;54.37;95696.66;4970627;28;20437;-74
2021/10/17 08:44:19;;;;;;;14.38;13.07;;;;;;;14.42;55.90;95724.19;4958834;28;20043;-73
2021/10/17 08:46:46;;;;;;;15.73;14.23;;;;;;;13.92;57.56;95744.09;4964051;28;20027;-73
2021/10/17 08:49:12;;;;;;;16.40;14.68;;;;;;;13.85;58.21;95749.09;4951803;28;20036;-79
2021/10/17 08:51:38;;;;;;;15.48;14.07;;;;;;;14.42;57.07;95741.03;4951752;28;20138;-73
2021/10/17 08:54:06;;;;;;;16.20;14.70;;;;;;;14.74;56.27;95731.00;4946570;28;20039;-70
2021/10/17 08:56:32;;;;;;;16.13;14.63;;;;;;;15.50;54.58;95739.22;4933699;29;20024;-74
2021/10/17 08:58:57;;;;;;;17.55;15.88;;;;;;;15.69;53.99;95735.41;4956529;28;20394;-73
2021/10/17 09:01:23;;;;;;;16.95;15.32;;;;;;;15.02;54.86;95726.09;4937166;28;20039;-72
2021/10/17 09:03:58;;;;;;;17.92;16.13;;;;;;;15.66;54.34;95738.72;4940003;28;20422;-71
2021/10/17 09:06:27;;;;;;;17.55;15.95;;;;;;;14.74;56.73;95726.44;4956407;28;20051;-68
2021/10/17 09:09:18;;;;;;;18.15;16.10;;;;;;;14.96;56.40;95730.06;4969344;28;20069;-71
2021/10/17 09:11:57;;;;;;;18.58;16.80;;;;;;;15.60;54.38;95725.47;4969279;28;20046;-68
2021/10/17 09:14:30;;;;;;;19.92;17.90;;;;;;;15.08;55.05;95728.28;4973910;28;20034;-69
2021/10/17 09:16:57;;;;;;;21.27;18.10;;;;;;;15.07;55.42;95734.75;4950194;28;20036;-70
2021/10/17 09:19:25;;;;;;;18.40;16.63;;;;;;;15.14;55.85;95731.59;4953151;28;20102;-70
2021/10/17 09:22:06;;;;;;;21.35;18.45;;;;;;;14.55;57.11;95729.44;4950276;28;20035;-70
2021/10/17 09:24:37;;;;;;;22.58;19.33;;;;;;;14.94;56.05;95733.03;4948775;28;20130;-70
2021/10/17 09:27:10;;;;;;;21.15;19.02;;;;;;;15.17;55.05;95728.28;4947397;28;20577;-76
2021/10/17 09:29:37;;;;;;;23.23;20.55;;;;;;;15.93;53.85;95726.81;4944461;28;20055;-81
2021/10/17 09:32:11;;;;;;;20.65;18.42;;;;;;;15.15;55.85;95729.69;4962395;28;20050;-76
2021/10/17 09:34:37;;;;;;;21.95;19.63;;;;;;;15.32;55.49;95732.34;4927655;28;20047;-72
2021/10/17 09:37:11;;;;;;;22.33;20.02;;;;;;;15.16;56.19;95732.06;4956168;28;20035;-69
2021/10/17 09:39:44;;;;;;;21.45;19.25;;;;;;;14.74;56.99;95731.00;4948991;28;20147;-71
2021/10/17 09:42:17;;;;;;;23.08;20.65;;;;;;;14.92;56.15;95724.53;4949495;28;20122;-70
2021/10/17 09:44:42;;;;;;;23.65;21.13;;;;;;;15.53;54.95;95730.56;4955423;28;20031;-71
2021/10/17 09:47:09;;;;;;;24.40;21.85;;;;;;;15.21;55.01;95715.03;4951870;28;20046;-73
2021/10/17 09:49:34;;;;;;;24.88;21.88;;;;;;;15.02;56.25;95734.13;4948684;28;20043;-78
2021/10/17 09:52:23;;;;;;;24.42;21.88;;;;;;;15.61;54.80;95731.66;4948959;28;20040;-73
2021/10/17 09:54:52;;;;;;;27.52;22.45;;;;;;;16.29;53.26;95729.75;4949409;28;20374;-78
2021/10/17 09:57:18;;;;;;;26.77;22.80;;;;;;;14.91;56.45;95731.00;4948302;28;20090;-68
2021/10/17 09:59:44;;;;;;;25.15;21.30;;;;;;;15.54;55.90;95725.97;4953736;28;20073;-72
2021/10/17 10:02:12;;;;;;;24.27;20.95;;;;;;;15.95;54.17;95735.31;4961323;28;20027;-70
2021/10/17 10:04:40;;;;;;;24.92;22.23;;;;;;;16.10;53.94;95724.81;4949270;28;20040;-70
2021/10/17 10:07:07;;;;;;;27.00;20.73;;;;;;;16.34;53.03;95720.72;4949444;28;20551;-70
2021/10/17 10:09:33;;;;;;;26.67;22.67;;;;;;;15.63;54.31;95701.81;4948437;28;20385;-69
2021/10/17 10:11:59;;;;;;;27.95;22.60;;;;;;;15.68;54.63;95718.53;4949129;28;20111;-70
2021/10/17 10:14:25;;;;;;;23.63;21.10;;;;;;;15.79;54.94;95724.34;4952932;28;20035;-70
2021/10/17 10:16:55;;;;;;;25.75;22.45;;;;;;;16.22;53.53;95720.63;4959987;28;20063;-69
2021/10/17 10:19:21;;;;;;;26.67;22.48;;;;;;;16.45;52.56;95737.22;4949663;28;20505;-69
2021/10/17 10:21:49;;;;;;;25.38;22.02;;;;;;;16.40;53.08;95735.53;4948722;28;20055;-67
2021/10/17 10:24:17;;;;;;;25.83;22.02;;;;;;;15.78;54.82;95728.13;4948718;28;20031;-68
2021/10/17 10:26:52;;;;;;;26.75;22.88;;;;;;;16.81;52.77;95721.34;4949358;28;20043;-69
2021/10/17 10:29:29;;;;;;;25.40;21.25;;;;;;;16.00;54.38;95727.84;4951566;28;20089;-68
2021/10/17 10:31:59;;;;;;;25.00;22.13;;;;;;;16.88;52.11;95723.47;4953286;28;20027;-68
2021/10/17 10:34:24;;;;;;;27.83;23.80;;;;;;;17.06;51.25;95713.38;4948317;28;20465;-67
2021/10/17 10:36:51;;;;;;;24.33;21.73;;;;;;;17.11;51.04;95702.41;4948763;28;20094;-68
2021/10/17 10:39:23;;;;;;;23.35;20.88;;;;;;;16.85;51.41;95708.81;4947125;28;20063;-69
2021/10/17 10:41:58;;;;;;;24.15;21.55;;;;;;;16.90;52.45;95718.59;4948925;28;20031;-68
2021/10/17 10:44:32;;;;;;;23.50;20.23;;;;;;;17.64;50.34;95712.25;4952532;28;20078;-68
2021/10/17 10:47:25;;;;;;;22.25;19.90;;;;;;;17.51;50.01;95705.31;4949592;28;20036;-68
2021/10/17 10:49:57;;;;;;;22.25;19.83;;;;;;;17.23;50.43;95707.03;4902837;29;20040;-68
2021/10/17 10:52:29;;;;;;;25.27;22.45;;;;;;;17.47;50.38;95707.09;4924514;28;20406;-68
2021/10/17 10:54:56;;;;;;;22.95;20.45;;;;;;;17.12;51.05;95706.66;4928892;28;20091;-69
2021/10/17 10:57:25;;;;;;;21.73;19.52;;;;;;;17.59;50.46;95709.78;4928688;28;20402;-68
2021/10/17 11:00:09;;;;;;;21.98;19.67;;;;;;;17.63;49.99;95705.31;4940503;28;20033;-68
2021/10/17 11:02:36;;;;;;;23.00;20.60;;;;;;;18.29;48.64;95687.38;4942034;28;20035;-68
2021/10/17 11:05:07;;;;;;;21.17;19.15;;;;;;;17.14;51.06;95699.06;4959760;28;20485;-67
2021/10/17 11:07:36;;;;;;;20.48;18.38;;;;;;;17.18;51.01;95707.25;4967925;28;20066;-67
2021/10/17 11:10:25;;;;;;;21.23;19.13;;;;;;;18.19;49.06;95699.41;4967766;28;20081;-67
2021/10/17 11:12:52;;;;;;;19.15;17.35;;;;;;;18.64;48.10;95690.34;4970724;28;20054;-69
2021/10/17 11:15:19;;;;;;;19.63;17.63;;;;;;;17.81;49.63;95694.34;4959625;28;20047;-69